Time;durP1;ratioP1;P1;durP2;ratioP2;P2;SDS_P1;SDS_P2;PMS_P1;PMS_P2;Temp;Humidity;BMP_temperature;BMP_pressure;BME280_temperature;BME280_humidity;BME280_pressure;Samples;Min_cycle;Max_cycle;Signal;HPM_P1;HPM_P2
2023/03/01 00:02:42;;;;;;;24.50;18.00;;;22.50;52.90;;;;;;222692;1259;22878;-51
2023/03/01 00:07:46;;;;;;;22.60;17.60;;;22.40;52.60;;;;;;222618;1266;23914;-49
2023/03/01 00:12:51;;;;;;;25.40;18.40;;;22.30;52.40;;;;;;222464;1263;22653;-53
2023/03/01 00:17:55;;;;;;;22.30;17.60;;;22.20;52.40;;;;;;222416;1269;22509;-49
2023/03/01 00:23:00;;;;;;;21.10;16.60;;;22.10;52.10;;;;;;222662;1264;22525;-49
2023/03/01 00:28:04;;;;;;;21.70;17.30;;;22.00;52.40;;;;;;223263;1263;22551;-52
2023/03/01 00:33:08;;;;;;;25.40;18.80;;;22.00;52.10;;;;;;222216;1268;22507;-50
2023/03/01 00:38:13;;;;;;;23.10;16.90;;;21.90;51.50;;;;;;222637;1269;24225;-51
2023/03/01 00:43:17;;;;;;;21.50;16.80;;;21.80;52.20;;;;;;222478;1263;25331;-49
2023/03/01 00:48:21;;;;;;;22.60;17.70;;;21.70;52.20;;;;;;222428;1269;24190;-47
2023/03/01 00:53:26;;;;;;;23.30;17.20;;;21.70;52.10;;;;;;222674;1266;24320;-53
2023/03/01 00:58:30;;;;;;;23.00;17.30;;;21.70;52.00;;;;;;222376;1269;23411;-48
2023/03/01 01:03:35;;;;;;;21.80;17.30;;;21.60;52.00;;;;;;222424;1267;23735;-48
2023/03/01 01:08:39;;;;;;;23.30;16.60;;;21.50;52.20;;;;;;222513;1266;22535;-52
2023/03/01 01:13:46;;;;;;;23.10;17.10;;;21.50;52.00;;;;;;222477;1269;22548;-39
2023/03/01 01:18:51;;;;;;;20.20;16.80;;;21.50;52.30;;;;;;224105;1269;25351;-40
2023/03/01 01:23:55;;;;;;;21.20;16.80;;;21.40;52.10;;;;;;229248;1265;22507;-40
2023/03/01 01:29:00;;;;;;;19.20;16.30;;;21.60;52.70;;;;;;223273;1269;22762;-40
2023/03/01 01:34:07;;;;;;;19.50;15.50;;;21.80;51.60;;;;;;222476;1266;24195;-39
2023/03/01 01:39:12;;;;;;;20.20;16.90;;;22.00;51.10;;;;;;222504;1264;22508;-41
2023/03/01 01:44:23;;;;;;;21.00;16.60;;;22.10;51.20;;;;;;222327;1263;22508;-41
2023/03/01 01:49:33;;;;;;;20.90;15.60;;;22.10;50.70;;;;;;222610;1266;22582;-40
2023/03/01 01:54:52;;;;;;;19.80;15.70;;;22.30;50.60;;;;;;222193;1264;24363;-40
2023/03/01 02:00:02;;;;;;;17.70;14.90;;;22.30;50.00;;;;;;222472;1269;22579;-40
2023/03/01 02:05:40;;;;;;;19.20;15.40;;;22.30;50.20;;;;;;222575;1268;24183;-40
2023/03/01 02:10:46;;;;;;;19.50;15.20;;;22.30;49.70;;;;;;222609;1267;24243;-41
2023/03/01 02:15:50;;;;;;;20.80;15.10;;;22.30;49.60;;;;;;222435;1265;22531;-41
2023/03/01 02:21:07;;;;;;;18.00;15.50;;;22.30;49.50;;;;;;222320;1267;347723;-40
2023/03/01 02:26:24;;;;;;;18.10;14.40;;;22.40;49.40;;;;;;222132;1269;25380;-39
2023/03/01 02:31:44;;;;;;;20.80;16.20;;;22.30;49.40;;;;;;222515;1267;24257;-41
2023/03/01 02:37:07;;;;;;;19.90;15.60;;;22.30;49.40;;;;;;222100;1264;24213;-40
2023/03/01 02:42:15;;;;;;;18.90;14.70;;;22.30;49.40;;;;;;222404;1264;22646;-41
2023/03/01 02:47:19;;;;;;;19.40;14.80;;;22.30;49.40;;;;;;222497;1269;25481;-41
2023/03/01 02:52:52;;;;;;;19.40;14.80;;;22.20;49.30;;;;;;222607;1264;22655;-40
2023/03/01 02:57:57;;;;;;;18.20;14.20;;;22.30;49.30;;;;;;222385;1264;23695;-41
2023/03/01 03:03:01;;;;;;;18.90;15.10;;;22.30;49.30;;;;;;222478;1267;22537;-39
2023/03/01 03:08:07;;;;;;;17.50;14.80;;;22.30;49.60;;;;;;222306;1264;22766;-40
2023/03/01 03:13:14;;;;;;;18.10;15.50;;;22.30;49.40;;;;;;222462;1264;22582;-41
2023/03/01 03:18:18;;;;;;;16.40;13.90;;;22.30;49.80;;;;;;222426;1264;22807;-39
2023/03/01 03:23:22;;;;;;;18.00;14.60;;;22.30;49.20;;;;;;222219;1264;22846;-41
2023/03/01 03:28:26;;;;;;;17.40;13.80;;;22.50;48.70;;;;;;222532;1267;22574;-40
2023/03/01 03:33:31;;;;;;;17.80;14.90;;;22.60;48.40;;;;;;222481;1264;22536;-42
2023/03/01 03:38:35;;;;;;;17.80;15.00;;;22.60;48.40;;;;;;222489;1267;22512;-42
2023/03/01 03:43:42;;;;;;;19.20;14.60;;;22.50;48.30;;;;;;222426;1254;22528;-39
2023/03/01 03:48:46;;;;;;;17.70;14.80;;;22.50;48.40;;;;;;222128;1267;22539;-40
2023/03/01 03:53:50;;;;;;;19.30;15.00;;;22.50;48.30;;;;;;222423;1266;22610;-41
2023/03/01 03:58:54;;;;;;;17.90;15.10;;;22.40;48.30;;;;;;222496;1256;23875;-52
2023/03/01 04:04:03;;;;;;;17.60;14.20;;;22.40;48.20;;;;;;222555;1258;22598;-51
2023/03/01 04:09:07;;;;;;;19.40;15.70;;;22.40;48.20;;;;;;222489;1264;24251;-51
2023/03/01 04:14:12;;;;;;;22.10;15.20;;;22.40;48.30;;;;;;222449;1264;24218;-52
2023/03/01 04:19:16;;;;;;;22.20;15.00;;;22.40;49.10;;;;;;222562;1263;24286;-52
2023/03/01 04:24:20;;;;;;;22.50;14.30;;;22.40;48.60;;;;;;222573;1267;22605;-47
2023/03/01 04:29:26;;;;;;;22.60;15.70;;;22.40;48.60;;;;;;222536;1263;23883;-53
2023/03/01 04:34:30;;;;;;;20.70;15.90;;;22.40;48.50;;;;;;222174;1264;26271;-50
2023/03/01 04:39:45;;;;;;;19.00;14.00;;;22.40;48.60;;;;;;222680;1262;22509;-49
2023/03/01 04:44:51;;;;;;;19.70;15.00;;;22.40;48.80;;;;;;222188;1253;22788;-54
2023/03/01 04:49:55;;;;;;;20.50;16.00;;;22.40;48.70;;;;;;222272;1264;23745;-53
2023/03/01 04:54:59;;;;;;;30.50;15.00;;;22.50;49.30;;;;;;222147;1263;22508;-55
2023/03/01 05:00:20;;;;;;;21.00;16.80;;;22.50;48.60;;;;;;222556;1254;22553;-55
2023/03/01 05:05:27;;;;;;;22.90;16.50;;;22.40;47.30;;;;;;222317;1264;22666;-54
2023/03/01 05:10:35;;;;;;;22.80;14.70;;;22.40;47.80;;;;;;221979;1248;22518;-54
2023/03/01 05:15:39;;;;;;;19.50;15.30;;;22.40;47.90;;;;;;230112;1263;22164;-54
2023/03/01 05:20:44;;;;;;;21.00;15.50;;;22.50;47.70;;;;;;223351;1267;22634;-55
2023/03/01 05:25:49;;;;;;;21.70;14.80;;;22.60;47.60;;;;;;222250;1269;25638;-55
2023/03/01 05:30:56;;;;;;;20.50;15.50;;;22.50;47.90;;;;;;222368;1263;25594;-52
2023/03/01 05:36:00;;;;;;;22.30;15.30;;;22.40;48.00;;;;;;222262;1263;22509;-55
2023/03/01 05:41:04;;;;;;;21.70;15.80;;;22.40;48.00;;;;;;222296;1266;22646;-55
2023/03/01 05:46:12;;;;;;;19.70;15.70;;;22.40;48.10;;;;;;222141;1254;25438;-55
2023/03/01 05:51:17;;;;;;;21.00;16.40;;;22.30;48.20;;;;;;222181;1264;23142;-53
2023/03/01 05:56:22;;;;;;;20.20;15.20;;;22.30;48.10;;;;;;222111;1254;23883;-56
2023/03/01 06:01:26;;;;;;;19.40;15.60;;;22.30;48.10;;;;;;222096;1266;25373;-54
2023/03/01 06:06:37;;;;;;;19.10;16.10;;;22.30;48.10;;;;;;222596;1264;23940;-54
2023/03/01 06:11:41;;;;;;;19.80;15.50;;;22.40;48.10;;;;;;222636;1264;24237;-54
2023/03/01 06:16:46;;;;;;;18.90;15.20;;;22.40;47.90;;;;;;222499;1263;23890;-54
2023/03/01 06:21:50;;;;;;;18.40;15.10;;;22.50;47.60;;;;;;222365;1266;23884;-54
2023/03/01 06:26:55;;;;;;;18.20;15.10;;;22.50;47.60;;;;;;222670;1268;22515;-54
2023/03/01 06:31:59;;;;;;;19.20;15.10;;;22.60;47.60;;;;;;222458;1263;24355;-55
2023/03/01 06:37:05;;;;;;;18.30;15.10;;;22.60;47.60;;;;;;222408;1263;22520;-54
2023/03/01 06:42:12;;;;;;;20.30;16.40;;;22.50;47.60;;;;;;222433;1263;22596;-55
2023/03/01 06:47:16;;;;;;;19.20;15.80;;;22.50;47.60;;;;;;222330;1265;22518;-55
2023/03/01 06:52:20;;;;;;;19.30;15.70;;;22.50;47.70;;;;;;222152;1263;22540;-54
2023/03/01 06:57:24;;;;;;;18.60;15.80;;;22.50;47.50;;;;;;222702;1263;22503;-54
2023/03/01 07:02:28;;;;;;;22.10;16.40;;;22.60;47.70;;;;;;222421;1263;24251;-52
2023/03/01 07:07:32;;;;;;;19.40;15.50;;;22.60;48.00;;;;;;222662;1253;22539;-52
2023/03/01 07:12:36;;;;;;;20.00;15.90;;;22.50;48.20;;;;;;222633;1262;24330;-55
2023/03/01 07:17:40;;;;;;;19.70;16.70;;;22.60;48.70;;;;;;222671;1261;22554;-53
2023/03/01 07:22:44;;;;;;;18.30;15.30;;;22.60;48.90;;;;;;222531;1268;22534;-55
2023/03/01 07:27:52;;;;;;;17.10;14.50;;;22.50;49.20;;;;;;222665;1253;22652;-51
2023/03/01 07:32:57;;;;;;;18.80;15.10;;;22.60;49.20;;;;;;222501;1266;22644;-55
2023/03/01 07:38:01;;;;;;;21.00;15.60;;;22.70;49.70;;;;;;222649;1268;26306;-52
2023/03/01 07:43:05;;;;;;;24.80;15.50;;;22.60;49.40;;;;;;222468;1268;22508;-52
2023/03/01 07:48:10;;;;;;;20.70;15.20;;;22.70;49.70;;;;;;222790;1264;24183;-55
2023/03/01 07:53:14;;;;;;;20.20;14.30;;;22.80;49.40;;;;;;222543;1265;22555;-53
2023/03/01 07:58:19;;;;;;;17.80;14.10;;;22.80;49.40;;;;;;222371;1263;25321;-52
2023/03/01 08:03:23;;;;;;;18.00;14.80;;;22.80;49.10;;;;;;222678;1268;22502;-54
2023/03/01 08:08:28;;;;;;;21.90;14.80;;;22.90;49.10;;;;;;222555;1263;22505;-50
2023/03/01 08:13:32;;;;;;;21.40;13.50;;;22.90;49.20;;;;;;222713;1260;22531;-52
2023/03/01 08:18:38;;;;;;;21.40;15.00;;;22.90;49.50;;;;;;222474;1248;22613;-53
2023/03/01 08:23:42;;;;;;;21.80;14.80;;;22.80;49.10;;;;;;222773;1268;22528;-51
2023/03/01 08:28:48;;;;;;;20.50;14.50;;;22.80;48.80;;;;;;222391;1263;22697;-49
2023/03/01 08:33:57;;;;;;;18.90;14.20;;;22.80;48.80;;;;;;222341;1267;22504;-51
2023/03/01 08:39:01;;;;;;;18.70;13.80;;;22.70;48.80;;;;;;222803;1268;25586;-53
2023/03/01 08:44:06;;;;;;;16.50;12.90;;;22.70;48.80;;;;;;222894;1263;22541;-52
2023/03/01 08:49:15;;;;;;;21.40;13.80;;;22.70;49.20;;;;;;222702;1266;22927;-52
2023/03/01 08:54:21;;;;;;;22.00;13.60;;;22.70;49.10;;;;;;222695;1268;24352;-54
2023/03/01 08:59:26;;;;;;;16.20;13.60;;;22.60;48.70;;;;;;222821;1263;22527;-54
2023/03/01 09:04:31;;;;;;;16.80;13.90;;;22.60;48.60;;;;;;222592;1263;23874;-53
2023/03/01 09:09:36;;;;;;;15.80;13.50;;;22.60;48.60;;;;;;222407;1250;22510;-48
2023/03/01 09:14:41;;;;;;;16.70;12.90;;;22.60;48.70;;;;;;222609;1266;24978;-51
2023/03/01 09:19:45;;;;;;;16.30;13.30;;;22.60;48.60;;;;;;222416;1263;25384;-54
2023/03/01 09:24:49;;;;;;;14.40;12.70;;;22.60;48.80;;;;;;222092;1257;24291;-52
2023/03/01 09:29:56;;;;;;;16.40;12.80;;;22.50;48.70;;;;;;222773;1263;25212;-49
2023/03/01 09:35:06;;;;;;;20.40;14.30;;;22.50;48.80;;;;;;222450;1263;22911;-50
2023/03/01 09:40:19;;;;;;;15.20;13.20;;;22.50;48.80;;;;;;222674;1262;22782;-49
2023/03/01 09:45:26;;;;;;;19.70;13.00;;;22.50;49.10;;;;;;222256;1262;25657;-52
2023/03/01 09:50:40;;;;;;;13.80;12.40;;;22.50;49.00;;;;;;222435;1263;22516;-53
2023/03/01 09:55:50;;;;;;;13.90;11.80;;;22.40;48.70;;;;;;222718;1263;22626;-52
2023/03/01 10:00:59;;;;;;;14.50;12.20;;;22.50;49.60;;;;;;222716;1253;22514;-54
2023/03/01 10:06:23;;;;;;;14.00;11.70;;;22.50;49.30;;;;;;222718;1253;25341;-52
2023/03/01 10:11:44;;;;;;;16.30;12.60;;;22.50;49.40;;;;;;222640;1261;23915;-52
2023/03/01 10:17:02;;;;;;;17.30;12.30;;;22.50;49.10;;;;;;222715;1263;22563;-51
2023/03/01 10:22:21;;;;;;;14.80;11.80;;;22.60;49.10;;;;;;222588;1263;22530;-52
2023/03/01 10:27:54;;;;;;;14.50;11.60;;;22.60;49.30;;;;;;222833;1268;25378;-53
2023/03/01 10:32:59;;;;;;;;;;;22.70;48.80;;;;;;222601;1263;22487;-51
2023/03/01 10:38:11;;;;;;;12.50;11.20;;;22.80;49.20;;;;;;222424;1263;22517;-49
2023/03/01 10:43:15;;;;;;;14.50;11.40;;;22.90;48.60;;;;;;222487;1267;22639;-53
2023/03/01 10:48:28;;;;;;;12.50;10.70;;;22.90;48.30;;;;;;222794;1266;22943;-54
2023/03/01 10:53:37;;;;;;;13.20;10.20;;;22.90;48.50;;;;;;223004;1246;23899;-52
2023/03/01 10:59:01;;;;;;;13.80;11.40;;;23.10;48.30;;;;;;222538;1246;22677;-54
2023/03/01 11:04:08;;;;;;;14.00;11.10;;;23.00;48.10;;;;;;222806;1263;25310;-56
2023/03/01 11:09:20;;;;;;;11.40;10.20;;;23.00;48.30;;;;;;222753;1268;22772;-53
2023/03/01 11:14:27;;;;;;;12.10;10.80;;;23.10;48.00;;;;;;222747;1263;25438;-47
2023/03/01 11:19:32;;;;;;;12.90;10.40;;;23.10;48.00;;;;;;222676;1253;22586;-53
2023/03/01 11:24:43;;;;;;;12.20;10.90;;;23.20;47.80;;;;;;222740;1261;22512;-52
2023/03/01 11:29:57;;;;;;;11.20;10.00;;;23.20;47.80;;;;;;222406;1263;22636;-54
2023/03/01 11:35:26;;;;;;;11.90;10.70;;;23.30;47.60;;;;;;222797;1261;23080;-54
2023/03/01 11:40:36;;;;;;;11.30;10.10;;;23.30;47.60;;;;;;222730;1266;24203;-49
2023/03/01 11:45:56;;;;;;;11.60;10.40;;;23.30;47.60;;;;;;222698;1267;23681;-53
2023/03/01 11:51:09;;;;;;;10.60;9.60;;;23.40;47.60;;;;;;222696;1247;22519;-51
2023/03/01 11:56:41;;;;;;;10.40;9.30;;;23.30;47.50;;;;;;222737;1263;22643;-52
2023/03/01 12:01:51;;;;;;;10.90;9.00;;;23.30;47.40;;;;;;222615;1263;22519;-55
2023/03/01 12:07:29;;;;;;;10.20;9.20;;;23.40;47.50;;;;;;222711;1256;23878;-52
2023/03/01 12:12:46;;;;;;;10.40;9.20;;;23.40;47.40;;;;;;222425;1267;22518;-52
2023/03/01 12:17:50;;;;;;;10.90;9.00;;;23.30;47.80;;;;;;222606;1262;22636;-54
2023/03/01 12:23:19;;;;;;;11.00;9.30;;;23.40;47.30;;;;;;222562;1253;25405;-52
2023/03/01 12:29:01;;;;;;;10.10;9.10;;;23.40;47.30;;;;;;222637;1266;25328;-54
2023/03/01 12:34:17;;;;;;;;;;;23.40;47.20;;;;;;222759;1265;22520;-48
2023/03/01 12:40:03;;;;;;;9.40;8.50;;;23.50;47.60;;;;;;222499;1265;22553;-54
2023/03/01 12:45:26;;;;;;;11.20;8.80;;;23.40;47.50;;;;;;222798;1266;22567;-43
2023/03/01 12:50:39;;;;;;;9.10;8.10;;;23.40;47.60;;;;;;222693;1248;22523;-44
2023/03/01 12:55:43;;;;;;;8.80;7.90;;;23.50;47.10;;;;;;222795;1268;23128;-43
2023/03/01 13:01:14;;;;;;;9.50;8.50;;;23.50;47.00;;;;;;222548;1246;24163;-44
2023/03/01 13:06:45;;;;;;;9.30;8.30;;;23.40;47.20;;;;;;222472;1259;24219;-43
2023/03/01 13:11:49;;;;;;;11.80;9.40;;;23.30;47.20;;;;;;222738;1265;24225;-44
2023/03/01 13:16:54;;;;;;;10.00;9.00;;;23.20;46.30;;;;;;222699;1263;22523;-46
2023/03/01 13:21:59;;;;;;;10.20;9.20;;;23.30;46.50;;;;;;222830;1263;25246;-45
2023/03/01 13:27:06;;;;;;;9.50;8.10;;;23.30;46.70;;;;;;222798;1263;24275;-44
2023/03/01 13:32:38;;;;;;;9.30;8.40;;;23.20;46.80;;;;;;222767;1268;24775;-45
2023/03/01 13:37:49;;;;;;;9.50;8.60;;;23.10;46.90;;;;;;222727;1263;24166;-45
2023/03/01 13:42:55;;;;;;;10.30;9.30;;;23.00;47.20;;;;;;222609;1265;22523;-44
2023/03/01 13:48:30;;;;;;;8.70;7.90;;;23.00;47.60;;;;;;222741;1263;22517;-44
2023/03/01 13:53:40;;;;;;;8.20;7.40;;;23.00;47.30;;;;;;222819;1263;23981;-46
2023/03/01 13:59:06;;;;;;;8.60;7.80;;;23.00;47.40;;;;;;222728;1250;22599;-45
2023/03/01 14:04:25;;;;;;;11.50;7.70;;;23.00;47.70;;;;;;222718;1268;22519;-45
2023/03/01 14:09:32;;;;;;;8.90;8.00;;;23.10;47.20;;;;;;222539;1255;25444;-45
2023/03/01 14:14:45;;;;;;;8.30;7.60;;;23.00;46.90;;;;;;222819;1261;22586;-44
2023/03/01 14:19:57;;;;;;;8.50;7.60;;;23.00;47.20;;;;;;222680;1266;174103;-43
2023/03/01 14:25:06;;;;;;;8.90;7.90;;;23.00;47.20;;;;;;222831;1264;22511;-45
2023/03/01 14:30:17;;;;;;;8.70;7.80;;;23.00;47.30;;;;;;222586;1254;22520;-43
2023/03/01 14:35:26;;;;;;;8.10;7.30;;;23.00;47.80;;;;;;222848;1263;22693;-43
2023/03/01 14:40:34;;;;;;;8.60;7.70;;;22.90;47.40;;;;;;222748;1263;22528;-44
2023/03/01 14:45:38;;;;;;;7.90;7.20;;;22.90;48.10;;;;;;222302;1264;22616;-44
2023/03/01 14:50:45;;;;;;;8.50;7.60;;;22.80;47.70;;;;;;222674;1267;22763;-45
2023/03/01 14:55:53;;;;;;;8.70;7.80;;;22.70;47.40;;;;;;222533;1262;24691;-41
2023/03/01 15:01:04;;;;;;;8.20;7.30;;;22.70;47.40;;;;;;222784;1266;22672;-43
2023/03/01 15:06:09;;;;;;;9.00;8.10;;;22.70;47.30;;;;;;222713;1266;25432;-53
2023/03/01 15:11:22;;;;;;;8.30;7.30;;;22.50;47.80;;;;;;222897;1257;22574;-52
2023/03/01 15:16:32;;;;;;;8.80;7.50;;;22.50;47.60;;;;;;222668;1260;24221;-52
2023/03/01 15:21:38;;;;;;;10.50;7.30;;;22.50;47.50;;;;;;222894;1266;24164;-54
2023/03/01 15:26:46;;;;;;;8.50;6.90;;;22.40;47.60;;;;;;222920;1263;25612;-47
2023/03/01 15:31:55;;;;;;;7.40;6.70;;;22.30;47.90;;;;;;222603;1264;24275;-54
2023/03/01 15:37:01;;;;;;;7.60;6.90;;;22.20;47.90;;;;;;222790;1268;22993;-54
2023/03/01 15:42:10;;;;;;;8.20;7.10;;;22.20;48.40;;;;;;222791;1266;24943;-54
2023/03/01 15:47:31;;;;;;;7.80;6.90;;;22.10;48.00;;;;;;222848;1269;24173;-53
2023/03/01 15:52:41;;;;;;;8.50;6.90;;;22.00;48.10;;;;;;222565;1265;22507;-51
2023/03/01 15:57:45;;;;;;;7.60;6.80;;;22.00;48.10;;;;;;222370;1254;25598;-53
2023/03/01 16:02:49;;;;;;;8.40;6.80;;;22.00;48.10;;;;;;222641;1263;25389;-53
2023/03/01 16:07:54;;;;;;;8.10;6.90;;;21.90;48.20;;;;;;222446;1268;23183;-55
2023/03/01 16:12:59;;;;;;;10.60;6.50;;;21.90;48.20;;;;;;222528;1264;22520;-58
2023/03/01 16:18:09;;;;;;;9.70;7.00;;;21.90;48.20;;;;;;222772;1265;22526;-55
2023/03/01 16:23:15;;;;;;;14.50;7.90;;;21.80;48.20;;;;;;222795;1266;25207;-53
2023/03/01 16:28:23;;;;;;;14.60;6.60;;;21.80;47.90;;;;;;222486;1266;23988;-53
2023/03/01 16:33:29;;;;;;;9.70;7.00;;;21.90;47.80;;;;;;222282;1246;22504;-52
2023/03/01 16:38:39;;;;;;;15.30;8.90;;;22.20;47.80;;;;;;225326;1261;22795;-57
2023/03/01 16:43:47;;;;;;;13.40;8.40;;;22.30;48.10;;;;;;223321;1266;22624;-55
2023/03/01 16:48:53;;;;;;;10.70;8.10;;;22.40;48.80;;;;;;222496;1266;25294;-55
2023/03/01 16:53:59;;;;;;;11.10;8.50;;;22.50;48.60;;;;;;222619;1263;24173;-55
2023/03/01 16:59:03;;;;;;;9.90;8.00;;;22.60;48.50;;;;;;222659;1263;24186;-54
2023/03/01 17:04:13;;;;;;;11.70;7.60;;;22.60;48.10;;;;;;222736;1269;25248;-51
2023/03/01 17:09:21;;;;;;;12.30;7.80;;;22.60;47.80;;;;;;222737;1263;22789;-51
2023/03/01 17:14:26;;;;;;;10.10;7.50;;;22.70;47.60;;;;;;222760;1263;24218;-53
2023/03/01 17:19:32;;;;;;;12.20;7.90;;;22.70;47.50;;;;;;222709;1247;24193;-56
2023/03/01 17:24:40;;;;;;;10.50;7.30;;;22.70;47.40;;;;;;222499;1269;22756;-53
2023/03/01 17:29:46;;;;;;;11.40;7.70;;;22.70;47.30;;;;;;222847;1266;22517;-55
2023/03/01 17:34:51;;;;;;;10.20;7.60;;;22.70;47.30;;;;;;222640;1263;25210;-55
2023/03/01 17:39:57;;;;;;;8.80;7.90;;;22.70;47.40;;;;;;222794;1268;25313;-56
2023/03/01 17:45:04;;;;;;;10.00;7.80;;;22.60;47.30;;;;;;222723;1266;24301;-41
2023/03/01 17:50:11;;;;;;;13.20;8.90;;;22.70;47.30;;;;;;222227;1265;22595;-42
2023/03/01 17:55:17;;;;;;;11.50;8.00;;;22.60;46.40;;;;;;222568;1263;23496;-43
2023/03/01 18:00:23;;;;;;;9.60;8.00;;;22.50;46.90;;;;;;222504;1256;25384;-42
2023/03/01 18:05:32;;;;;;;8.80;7.60;;;22.60;46.80;;;;;;222716;1269;22525;-49
2023/03/01 18:10:38;;;;;;;12.80;9.10;;;22.60;47.00;;;;;;222875;1264;22527;-42
2023/03/01 18:15:45;;;;;;;11.00;8.70;;;22.70;46.30;;;;;;222652;1261;22955;-42
2023/03/01 18:20:58;;;;;;;14.20;9.90;;;22.70;46.50;;;;;;222167;1266;22653;-41
2023/03/01 18:26:08;;;;;;;13.40;10.10;;;22.80;46.10;;;;;;222305;1265;23459;-42
2023/03/01 18:31:16;;;;;;;15.60;11.10;;;22.80;45.60;;;;;;222598;1263;24174;-43
2023/03/01 18:36:28;;;;;;;12.60;10.90;;;22.90;45.40;;;;;;222302;1263;22787;-41
2023/03/01 18:41:37;;;;;;;14.30;10.40;;;22.90;45.40;;;;;;222437;1263;23941;-44
2023/03/01 18:46:47;;;;;;;13.50;11.30;;;22.90;45.30;;;;;;222342;1262;22590;-42
2023/03/01 18:51:54;;;;;;;13.60;11.00;;;22.90;45.20;;;;;;222490;1265;26228;-43
2023/03/01 18:57:00;;;;;;;14.20;10.80;;;22.80;45.20;;;;;;222174;1263;24340;-43
2023/03/01 19:02:07;;;;;;;14.30;10.70;;;22.80;44.90;;;;;;222395;1264;22511;-42
2023/03/01 19:07:13;;;;;;;12.50;10.90;;;22.70;45.20;;;;;;222140;1266;22533;-42
2023/03/01 19:12:19;;;;;;;15.10;11.10;;;22.70;45.20;;;;;;222225;1263;22522;-45
2023/03/01 19:17:29;;;;;;;15.50;11.50;;;22.70;44.40;;;;;;222086;1266;25255;-43
2023/03/01 19:22:39;;;;;;;16.80;11.10;;;22.80;44.50;;;;;;222651;1263;25045;-43
2023/03/01 19:27:47;;;;;;;16.00;11.60;;;22.70;44.70;;;;;;222670;1261;24239;-48
2023/03/01 19:32:53;;;;;;;18.30;12.40;;;22.70;45.00;;;;;;222518;1255;22636;-40
2023/03/01 19:37:59;;;;;;;19.30;12.10;;;22.80;44.90;;;;;;222496;1269;25396;-43
2023/03/01 19:43:04;;;;;;;16.20;12.20;;;22.80;45.40;;;;;;222621;1267;22658;-42
2023/03/01 19:48:11;;;;;;;17.70;11.40;;;22.80;46.00;;;;;;222149;1269;24334;-41
2023/03/01 19:53:19;;;;;;;17.00;12.30;;;22.90;47.10;;;;;;222613;1269;23509;-43
2023/03/01 19:58:27;;;;;;;17.60;11.80;;;22.70;48.30;;;;;;222551;1266;24888;-42
2023/03/01 20:03:35;;;;;;;16.20;12.10;;;22.70;48.40;;;;;;222311;1263;22518;-41
2023/03/01 20:08:43;;;;;;;19.40;13.60;;;22.60;48.00;;;;;;222109;1269;24367;-43
2023/03/01 20:13:49;;;;;;;22.20;16.20;;;22.60;48.60;;;;;;222041;1263;25210;-41
2023/03/01 20:18:57;;;;;;;23.90;17.20;;;22.50;48.20;;;;;;221871;1264;24357;-43
2023/03/01 20:24:04;;;;;;;30.40;19.60;;;22.40;48.00;;;;;;222215;1263;22605;-40
2023/03/01 20:29:15;;;;;;;38.40;24.50;;;22.40;47.40;;;;;;221988;1266;22773;-41
2023/03/01 20:34:22;;;;;;;36.20;24.80;;;22.30;47.60;;;;;;222348;1267;22567;-43
2023/03/01 20:39:30;;;;;;;36.90;25.70;;;22.30;46.90;;;;;;222489;1253;24298;-41
2023/03/01 20:44:41;;;;;;;40.20;26.40;;;22.20;46.80;;;;;;222253;1247;22726;-41
2023/03/01 20:49:50;;;;;;;39.70;28.20;;;22.20;47.40;;;;;;222266;1267;22614;-41
2023/03/01 20:54:57;;;;;;;39.60;27.60;;;22.30;46.60;;;;;;222548;1266;22571;-41
2023/03/01 21:00:05;;;;;;;49.00;27.30;;;22.10;47.10;;;;;;222580;1269;22490;-42
2023/03/01 21:05:12;;;;;;;43.30;28.50;;;22.10;47.90;;;;;;222530;1267;24239;-42
2023/03/01 21:10:17;;;;;;;44.90;29.10;;;22.10;47.20;;;;;;222175;1269;24306;-41
2023/03/01 21:15:23;;;;;;;43.30;28.40;;;22.00;47.60;;;;;;222051;1264;24177;-42
2023/03/01 21:20:32;;;;;;;52.90;28.90;;;21.90;47.70;;;;;;222293;1246;22664;-40
2023/03/01 21:25:37;;;;;;;48.30;29.30;;;21.90;47.70;;;;;;222429;1263;22512;-42
2023/03/01 21:30:43;;;;;;;46.90;28.90;;;21.90;49.80;;;;;;222346;1267;25564;-40
2023/03/01 21:35:48;;;;;;;51.10;30.50;;;21.80;51.00;;;;;;222310;1266;24190;-42
2023/03/01 21:40:52;;;;;;;41.30;30.00;;;21.80;52.00;;;;;;222149;1261;22539;-41
2023/03/01 21:46:01;;;;;;;43.00;29.40;;;21.60;51.60;;;;;;222243;1263;24186;-43
2023/03/01 21:51:05;;;;;;;42.80;28.50;;;21.60;51.20;;;;;;222263;1264;22534;-42
2023/03/01 21:56:20;;;;;;;45.20;29.80;;;21.50;50.90;;;;;;222094;1266;23622;-45
2023/03/01 22:01:26;;;;;;;48.30;30.60;;;21.60;50.70;;;;;;222563;1257;25261;-40
2023/03/01 22:06:33;;;;;;;46.90;31.20;;;22.00;55.20;;;;;;222424;1267;22545;-41
2023/03/01 22:11:41;;;;;;;43.60;29.70;;;22.20;53.80;;;;;;223959;1251;25138;-41
2023/03/01 22:16:47;;;;;;;43.80;28.60;;;22.40;53.70;;;;;;222696;1263;22975;-42
2023/03/01 22:21:52;;;;;;;42.40;28.90;;;22.50;53.80;;;;;;222379;1257;22525;-42
2023/03/01 22:26:56;;;;;;;44.20;28.80;;;22.50;53.10;;;;;;222468;1264;22677;-42
2023/03/01 22:32:00;;;;;;;39.80;29.30;;;22.60;53.00;;;;;;222614;1266;22522;-42
2023/03/01 22:37:05;;;;;;;42.10;29.80;;;22.60;53.00;;;;;;222572;1264;25452;-44
2023/03/01 22:42:09;;;;;;;43.20;29.50;;;22.60;52.80;;;;;;222531;1264;22522;-41
2023/03/01 22:47:14;;;;;;;38.30;28.70;;;22.60;53.00;;;;;;222445;1264;22517;-42
2023/03/01 22:52:18;;;;;;;38.30;27.00;;;22.60;52.90;;;;;;222566;1263;22534;-43
2023/03/01 22:57:22;;;;;;;39.70;29.40;;;22.60;52.50;;;;;;222435;1263;24212;-45
2023/03/01 23:02:27;;;;;;;38.80;28.00;;;22.60;52.00;;;;;;222487;1254;22756;-42
2023/03/01 23:07:31;;;;;;;37.60;27.90;;;22.60;52.20;;;;;;222461;1260;24282;-42
2023/03/01 23:12:35;;;;;;;39.60;29.60;;;22.60;52.10;;;;;;222500;1261;22504;-42
2023/03/01 23:17:39;;;;;;;39.50;29.50;;;22.60;52.00;;;;;;222720;1260;22512;-43
2023/03/01 23:22:43;;;;;;;36.30;27.20;;;22.60;52.10;;;;;;222583;1264;22522;-41
2023/03/01 23:27:47;;;;;;;37.50;28.00;;;22.50;52.10;;;;;;222441;1264;22561;-43
2023/03/01 23:32:52;;;;;;;39.40;27.70;;;22.60;52.00;;;;;;222444;1264;22512;-42
2023/03/01 23:37:56;;;;;;;38.40;27.40;;;22.60;51.60;;;;;;222477;1254;23010;-44
2023/03/01 23:43:00;;;;;;;33.40;26.60;;;22.60;51.50;;;;;;222534;1267;25296;-43
2023/03/01 23:48:04;;;;;;;34.80;27.00;;;22.70;51.00;;;;;;222436;1261;22507;-43
2023/03/01 23:53:14;;;;;;;35.80;27.10;;;22.60;51.60;;;;;;222763;1260;22593;-43
2023/03/01 23:58:18;;;;;;;38.20;26.80;;;22.60;51.20;;;;;;222619;1263;25293;-43
